sensor_id;sensor_type;location;lat;lon;timestamp;pressure;altitude;pressure_sealevel;temperature;humidity
12182;BME280;6154;51.550;12.138;2022-09-27T00:01:08;98556.47;;;18.62;50.56
12182;BME280;6154;51.550;12.138;2022-09-27T00:03:38;98555.19;;;18.58;51.04
12182;BME280;6154;51.550;12.138;2022-09-27T00:06:08;98548.69;;;18.52;51.57
12182;BME280;6154;51.550;12.138;2022-09-27T00:08:38;98547.84;;;18.52;51.96
12182;BME280;6154;51.550;12.138;2022-09-27T00:11:09;98550.72;;;18.50;52.17
12182;BME280;6154;51.550;12.138;2022-09-27T00:13:39;98539.63;;;18.53;51.25
12182;BME280;6154;51.550;12.138;2022-09-27T00:16:09;98535.28;;;18.52;51.55
12182;BME280;6154;51.550;12.138;2022-09-27T00:18:38;98533.81;;;18.50;51.53
12182;BME280;6154;51.550;12.138;2022-09-27T00:21:09;98528.66;;;18.48;51.64
12182;BME280;6154;51.550;12.138;2022-09-27T00:23:38;98521.69;;;18.39;52.42
12182;BME280;6154;51.550;12.138;2022-09-27T00:26:11;98521.44;;;18.49;51.65
12182;BME280;6154;51.550;12.138;2022-09-27T00:28:40;98506.19;;;18.49;51.47
12182;BME280;6154;51.550;12.138;2022-09-27T00:31:16;98512.69;;;18.55;51.09
12182;BME280;6154;51.550;12.138;2022-09-27T00:33:47;98507.13;;;18.56;52.19
12182;BME280;6154;51.550;12.138;2022-09-27T00:36:20;98500.66;;;18.51;51.78
12182;BME280;6154;51.550;12.138;2022-09-27T00:38:49;98502.31;;;18.52;51.44
12182;BME280;6154;51.550;12.138;2022-09-27T00:41:20;98502.50;;;18.50;51.40
12182;BME280;6154;51.550;12.138;2022-09-27T00:43:52;98490.94;;;18.50;51.59
12182;BME280;6154;51.550;12.138;2022-09-27T00:46:25;98480.81;;;18.45;51.88
12182;BME280;6154;51.550;12.138;2022-09-27T00:49:03;98475.31;;;18.38;52.83
12182;BME280;6154;51.550;12.138;2022-09-27T00:51:33;98476.34;;;18.37;52.88
12182;BME280;6154;51.550;12.138;2022-09-27T00:54:04;98458.88;;;18.42;52.44
12182;BME280;6154;51.550;12.138;2022-09-27T00:56:32;98460.38;;;18.44;51.78
12182;BME280;6154;51.550;12.138;2022-09-27T00:59:06;98460.53;;;18.43;52.00
12182;BME280;6154;51.550;12.138;2022-09-27T01:01:50;98451.22;;;18.38;52.82
12182;BME280;6154;51.550;12.138;2022-09-27T01:04:20;98443.84;;;18.41;51.86
12182;BME280;6154;51.550;12.138;2022-09-27T01:06:50;98448.53;;;18.38;52.17
12182;BME280;6154;51.550;12.138;2022-09-27T01:09:18;98441.16;;;18.41;51.69
12182;BME280;6154;51.550;12.138;2022-09-27T01:11:50;98440.31;;;18.40;51.79
12182;BME280;6154;51.550;12.138;2022-09-27T01:14:35;98437.53;;;18.33;52.68
12182;BME280;6154;51.550;12.138;2022-09-27T01:17:25;98431.19;;;18.34;52.61
12182;BME280;6154;51.550;12.138;2022-09-27T01:20:19;98431.28;;;18.26;53.33
12182;BME280;6154;51.550;12.138;2022-09-27T01:23:04;98419.81;;;18.32;53.86
12182;BME280;6154;51.550;12.138;2022-09-27T01:25:49;98422.03;;;18.29;53.52
12182;BME280;6154;51.550;12.138;2022-09-27T01:28:33;98423.94;;;18.20;53.82
12182;BME280;6154;51.550;12.138;2022-09-27T01:31:11;98421.00;;;18.15;53.74
12182;BME280;6154;51.550;12.138;2022-09-27T01:33:46;98419.22;;;18.07;53.99
12182;BME280;6154;51.550;12.138;2022-09-27T01:36:26;98414.81;;;18.15;53.24
12182;BME280;6154;51.550;12.138;2022-09-27T01:39:08;98420.34;;;18.13;53.14
12182;BME280;6154;51.550;12.138;2022-09-27T01:41:46;98409.81;;;18.12;53.90
12182;BME280;6154;51.550;12.138;2022-09-27T01:44:28;98404.28;;;18.13;52.57
12182;BME280;6154;51.550;12.138;2022-09-27T01:47:02;98403.13;;;17.93;54.53
12182;BME280;6154;51.550;12.138;2022-09-27T01:49:34;98401.22;;;18.01;53.43
12182;BME280;6154;51.550;12.138;2022-09-27T01:52:07;98399.84;;;18.05;52.83
12182;BME280;6154;51.550;12.138;2022-09-27T01:54:41;98396.88;;;18.00;53.79
12182;BME280;6154;51.550;12.138;2022-09-27T01:57:16;98394.19;;;18.00;53.26
12182;BME280;6154;51.550;12.138;2022-09-27T01:59:49;98386.81;;;18.02;53.39
12182;BME280;6154;51.550;12.138;2022-09-27T02:02:25;98388.19;;;17.98;53.34
12182;BME280;6154;51.550;12.138;2022-09-27T02:04:59;98383.69;;;17.99;53.42
12182;BME280;6154;51.550;12.138;2022-09-27T02:07:33;98384.31;;;18.01;53.18
12182;BME280;6154;51.550;12.138;2022-09-27T02:10:08;98368.75;;;18.04;52.75
12182;BME280;6154;51.550;12.138;2022-09-27T02:12:43;98373.28;;;18.04;53.17
12182;BME280;6154;51.550;12.138;2022-09-27T02:15:13;98370.75;;;18.02;52.83
12182;BME280;6154;51.550;12.138;2022-09-27T02:17:48;98368.38;;;18.07;52.56
12182;BME280;6154;51.550;12.138;2022-09-27T02:20:25;98366.66;;;17.92;53.89
12182;BME280;6154;51.550;12.138;2022-09-27T02:23:03;98361.13;;;17.93;54.14
12182;BME280;6154;51.550;12.138;2022-09-27T02:25:40;98359.03;;;18.03;53.48
12182;BME280;6154;51.550;12.138;2022-09-27T02:28:17;98358.94;;;18.12;52.93
12182;BME280;6154;51.550;12.138;2022-09-27T02:30:49;98350.72;;;17.98;54.30
12182;BME280;6154;51.550;12.138;2022-09-27T02:33:22;98352.84;;;18.03;53.57
12182;BME280;6154;51.550;12.138;2022-09-27T02:35:51;98342.31;;;18.01;54.32
12182;BME280;6154;51.550;12.138;2022-09-27T02:38:20;98338.72;;;18.09;52.90
12182;BME280;6154;51.550;12.138;2022-09-27T02:40:49;98345.56;;;17.97;53.95
12182;BME280;6154;51.550;12.138;2022-09-27T02:43:19;98345.63;;;18.03;54.00
12182;BME280;6154;51.550;12.138;2022-09-27T02:46:02;98336.50;;;17.98;53.61
12182;BME280;6154;51.550;12.138;2022-09-27T02:48:44;98339.09;;;18.06;53.86
12182;BME280;6154;51.550;12.138;2022-09-27T02:51:56;98336.06;;;18.09;53.92
12182;BME280;6154;51.550;12.138;2022-09-27T02:54:34;98334.84;;;17.97;54.94
12182;BME280;6154;51.550;12.138;2022-09-27T02:57:17;98324.31;;;18.10;53.05
12182;BME280;6154;51.550;12.138;2022-09-27T02:59:59;98327.09;;;18.02;53.84
12182;BME280;6154;51.550;12.138;2022-09-27T03:02:35;98334.75;;;17.90;54.61
12182;BME280;6154;51.550;12.138;2022-09-27T03:05:19;98328.84;;;17.95;53.97
12182;BME280;6154;51.550;12.138;2022-09-27T03:07:48;98331.16;;;17.98;53.82
12182;BME280;6154;51.550;12.138;2022-09-27T03:10:17;98330.44;;;18.04;53.07
12182;BME280;6154;51.550;12.138;2022-09-27T03:12:45;98326.19;;;17.95;54.37
12182;BME280;6154;51.550;12.138;2022-09-27T03:15:15;98327.91;;;18.02;53.29
12182;BME280;6154;51.550;12.138;2022-09-27T03:17:51;98327.34;;;17.92;54.25
12182;BME280;6154;51.550;12.138;2022-09-27T03:20:37;98328.03;;;17.94;53.92
12182;BME280;6154;51.550;12.138;2022-09-27T03:23:08;98319.16;;;17.94;53.80
12182;BME280;6154;51.550;12.138;2022-09-27T03:25:36;98314.66;;;17.94;53.64
12182;BME280;6154;51.550;12.138;2022-09-27T03:28:04;98311.78;;;17.96;53.63
12182;BME280;6154;51.550;12.138;2022-09-27T03:30:33;98311.56;;;17.83;54.87
12182;BME280;6154;51.550;12.138;2022-09-27T03:33:01;98309.56;;;17.85;55.11
12182;BME280;6154;51.550;12.138;2022-09-27T03:35:30;98309.44;;;17.78;55.77
12182;BME280;6154;51.550;12.138;2022-09-27T03:38:00;98306.50;;;17.88;54.30
12182;BME280;6154;51.550;12.138;2022-09-27T03:40:29;98308.72;;;17.84;54.40
12182;BME280;6154;51.550;12.138;2022-09-27T03:42:57;98311.41;;;17.84;54.30
12182;BME280;6154;51.550;12.138;2022-09-27T03:45:25;98312.31;;;17.76;55.54
12182;BME280;6154;51.550;12.138;2022-09-27T03:47:56;98306.22;;;17.83;54.68
12182;BME280;6154;51.550;12.138;2022-09-27T03:50:24;98309.06;;;17.81;54.99
12182;BME280;6154;51.550;12.138;2022-09-27T03:52:52;98315.91;;;17.84;54.90
12182;BME280;6154;51.550;12.138;2022-09-27T03:55:22;98316.47;;;17.79;55.19
12182;BME280;6154;51.550;12.138;2022-09-27T03:57:50;98320.03;;;17.71;56.00
12182;BME280;6154;51.550;12.138;2022-09-27T04:00:18;98306.78;;;17.78;55.84
12182;BME280;6154;51.550;12.138;2022-09-27T04:02:47;98310.72;;;17.82;55.08
12182;BME280;6154;51.550;12.138;2022-09-27T04:05:19;98304.34;;;17.68;56.29
12182;BME280;6154;51.550;12.138;2022-09-27T04:07:49;98310.16;;;17.72;56.38
12182;BME280;6154;51.550;12.138;2022-09-27T04:10:17;98304.34;;;17.68;56.56
12182;BME280;6154;51.550;12.138;2022-09-27T04:12:47;98298.28;;;17.74;55.63
12182;BME280;6154;51.550;12.138;2022-09-27T04:15:16;98301.50;;;17.70;56.48
12182;BME280;6154;51.550;12.138;2022-09-27T04:17:45;98300.44;;;17.56;57.47
12182;BME280;6154;51.550;12.138;2022-09-27T04:20:14;98298.03;;;17.61;56.81
12182;BME280;6154;51.550;12.138;2022-09-27T04:22:43;98298.47;;;17.50;58.69
12182;BME280;6154;51.550;12.138;2022-09-27T04:25:11;98294.53;;;17.46;58.72
12182;BME280;6154;51.550;12.138;2022-09-27T04:27:43;98295.34;;;17.46;58.34
12182;BME280;6154;51.550;12.138;2022-09-27T04:30:14;98294.91;;;17.58;57.27
12182;BME280;6154;51.550;12.138;2022-09-27T04:32:44;98285.37;;;17.40;58.04
12182;BME280;6154;51.550;12.138;2022-09-27T04:35:14;98284.66;;;17.46;58.25
12182;BME280;6154;51.550;12.138;2022-09-27T04:38:00;98287.84;;;17.42;58.03
12182;BME280;6154;51.550;12.138;2022-09-27T04:40:28;98288.34;;;17.45;57.26
12182;BME280;6154;51.550;12.138;2022-09-27T04:42:57;98282.16;;;17.45;57.18
12182;BME280;6154;51.550;12.138;2022-09-27T04:45:27;98291.72;;;17.39;58.77
12182;BME280;6154;51.550;12.138;2022-09-27T04:47:55;98288.88;;;17.41;58.24
12182;BME280;6154;51.550;12.138;2022-09-27T04:50:24;98289.69;;;17.41;57.92
12182;BME280;6154;51.550;12.138;2022-09-27T04:53:00;98291.19;;;17.44;57.45
12182;BME280;6154;51.550;12.138;2022-09-27T04:55:28;98288.22;;;17.39;58.61
12182;BME280;6154;51.550;12.138;2022-09-27T04:57:56;98292.56;;;17.40;58.10
12182;BME280;6154;51.550;12.138;2022-09-27T05:00:26;98290.62;;;17.34;58.77
12182;BME280;6154;51.550;12.138;2022-09-27T05:02:55;98287.28;;;17.32;58.74
12182;BME280;6154;51.550;12.138;2022-09-27T05:05:24;98289.03;;;17.24;59.99
12182;BME280;6154;51.550;12.138;2022-09-27T05:07:53;98285.28;;;17.34;57.98
12182;BME280;6154;51.550;12.138;2022-09-27T05:10:22;98287.56;;;17.37;57.85
12182;BME280;6154;51.550;12.138;2022-09-27T05:12:50;98288.22;;;17.39;58.14
12182;BME280;6154;51.550;12.138;2022-09-27T05:15:18;98289.88;;;17.40;57.73
12182;BME280;6154;51.550;12.138;2022-09-27T05:17:51;98288.88;;;17.41;57.72
12182;BME280;6154;51.550;12.138;2022-09-27T05:20:23;98291.53;;;17.41;58.02
12182;BME280;6154;51.550;12.138;2022-09-27T05:22:52;98287.50;;;17.45;57.42
12182;BME280;6154;51.550;12.138;2022-09-27T05:25:20;98286.19;;;17.41;57.95
12182;BME280;6154;51.550;12.138;2022-09-27T05:27:48;98291.19;;;17.44;57.34
12182;BME280;6154;51.550;12.138;2022-09-27T05:30:17;98299.56;;;17.41;57.84
12182;BME280;6154;51.550;12.138;2022-09-27T05:32:46;98294.78;;;17.36;58.29
12182;BME280;6154;51.550;12.138;2022-09-27T05:35:21;98300.69;;;17.46;57.34
12182;BME280;6154;51.550;12.138;2022-09-27T05:37:51;98290.00;;;17.46;57.54
12182;BME280;6154;51.550;12.138;2022-09-27T05:40:20;98302.25;;;17.41;58.17
12182;BME280;6154;51.550;12.138;2022-09-27T05:43:08;98304.56;;;17.44;58.19
12182;BME280;6154;51.550;12.138;2022-09-27T05:45:36;98305.75;;;17.41;58.84
12182;BME280;6154;51.550;12.138;2022-09-27T05:48:04;98304.09;;;17.40;59.01
12182;BME280;6154;51.550;12.138;2022-09-27T05:50:35;98299.88;;;17.46;58.10
12182;BME280;6154;51.550;12.138;2022-09-27T05:53:03;98299.50;;;17.49;57.94
12182;BME280;6154;51.550;12.138;2022-09-27T05:55:31;98296.19;;;17.47;58.45
12182;BME280;6154;51.550;12.138;2022-09-27T05:58:01;98297.47;;;17.51;58.27
12182;BME280;6154;51.550;12.138;2022-09-27T06:00:30;98293.06;;;17.58;57.94
12182;BME280;6154;51.550;12.138;2022-09-27T06:03:01;98293.97;;;17.50;58.88
12182;BME280;6154;51.550;12.138;2022-09-27T06:05:40;98293.34;;;17.63;57.57
12182;BME280;6154;51.550;12.138;2022-09-27T06:08:16;98298.81;;;17.70;57.76
12182;BME280;6154;51.550;12.138;2022-09-27T06:10:48;98301.44;;;17.78;57.57
12182;BME280;6154;51.550;12.138;2022-09-27T06:13:18;98298.84;;;17.85;57.37
12182;BME280;6154;51.550;12.138;2022-09-27T06:15:46;98306.88;;;17.85;57.15
12182;BME280;6154;51.550;12.138;2022-09-27T06:18:17;98303.28;;;17.92;56.69
12182;BME280;6154;51.550;12.138;2022-09-27T06:20:46;98301.41;;;17.93;56.68
12182;BME280;6154;51.550;12.138;2022-09-27T06:23:16;98299.00;;;17.83;57.47
12182;BME280;6154;51.550;12.138;2022-09-27T06:25:45;98298.75;;;17.93;56.86
12182;BME280;6154;51.550;12.138;2022-09-27T06:28:14;98303.75;;;17.96;56.63
12182;BME280;6154;51.550;12.138;2022-09-27T06:30:44;98298.66;;;18.01;56.62
12182;BME280;6154;51.550;12.138;2022-09-27T06:33:15;98295.91;;;17.94;57.00
12182;BME280;6154;51.550;12.138;2022-09-27T06:35:45;98296.81;;;18.01;56.80
12182;BME280;6154;51.550;12.138;2022-09-27T06:38:19;98294.63;;;18.05;56.61
12182;BME280;6154;51.550;12.138;2022-09-27T06:40:50;98296.72;;;18.09;56.87
12182;BME280;6154;51.550;12.138;2022-09-27T06:43:19;98299.03;;;18.13;56.62
12182;BME280;6154;51.550;12.138;2022-09-27T06:45:48;98293.78;;;18.19;56.27
12182;BME280;6154;51.550;12.138;2022-09-27T06:48:19;98300.69;;;18.28;56.00
12182;BME280;6154;51.550;12.138;2022-09-27T06:50:52;98302.63;;;18.34;56.22
12182;BME280;6154;51.550;12.138;2022-09-27T06:53:25;98302.63;;;18.34;56.70
12182;BME280;6154;51.550;12.138;2022-09-27T06:55:56;98309.72;;;18.42;56.68
12182;BME280;6154;51.550;12.138;2022-09-27T06:58:26;98309.84;;;18.34;57.31
12182;BME280;6154;51.550;12.138;2022-09-27T07:01:14;98307.56;;;18.52;56.56
12182;BME280;6154;51.550;12.138;2022-09-27T07:03:48;98308.69;;;18.58;56.60
12182;BME280;6154;51.550;12.138;2022-09-27T07:06:18;98316.97;;;18.63;56.75
12182;BME280;6154;51.550;12.138;2022-09-27T07:08:51;98313.97;;;18.66;56.73
12182;BME280;6154;51.550;12.138;2022-09-27T07:11:21;98306.19;;;18.71;56.73
12182;BME280;6154;51.550;12.138;2022-09-27T07:13:50;98316.69;;;18.87;56.49
12182;BME280;6154;51.550;12.138;2022-09-27T07:16:19;98319.38;;;18.87;56.63
12182;BME280;6154;51.550;12.138;2022-09-27T07:18:54;98316.81;;;19.01;56.32
12182;BME280;6154;51.550;12.138;2022-09-27T07:21:22;98317.00;;;19.20;55.63
12182;BME280;6154;51.550;12.138;2022-09-27T07:23:52;98324.00;;;19.15;55.80
12182;BME280;6154;51.550;12.138;2022-09-27T07:26:26;98329.19;;;19.23;55.51
12182;BME280;6154;51.550;12.138;2022-09-27T07:28:56;98331.53;;;19.26;55.45
12182;BME280;6154;51.550;12.138;2022-09-27T07:31:25;98328.75;;;19.41;55.25
12182;BME280;6154;51.550;12.138;2022-09-27T07:33:54;98327.28;;;19.38;55.43
12182;BME280;6154;51.550;12.138;2022-09-27T07:36:22;98324.63;;;19.60;54.97
12182;BME280;6154;51.550;12.138;2022-09-27T07:38:52;98325.53;;;19.52;55.25
12182;BME280;6154;51.550;12.138;2022-09-27T07:41:22;98330.25;;;19.65;54.92
12182;BME280;6154;51.550;12.138;2022-09-27T07:43:50;98329.56;;;19.56;55.19
12182;BME280;6154;51.550;12.138;2022-09-27T07:46:19;98335.78;;;19.63;54.75
12182;BME280;6154;51.550;12.138;2022-09-27T07:48:49;98331.06;;;19.65;54.52
12182;BME280;6154;51.550;12.138;2022-09-27T07:51:18;98327.03;;;19.55;54.53
12182;BME280;6154;51.550;12.138;2022-09-27T07:53:46;98343.69;;;19.50;54.85
12182;BME280;6154;51.550;12.138;2022-09-27T07:56:19;98331.25;;;19.42;54.81
12182;BME280;6154;51.550;12.138;2022-09-27T07:58:47;98329.59;;;19.41;54.69
12182;BME280;6154;51.550;12.138;2022-09-27T08:01:15;98335.91;;;19.34;54.92
12182;BME280;6154;51.550;12.138;2022-09-27T08:03:47;98337.13;;;19.31;54.92
12182;BME280;6154;51.550;12.138;2022-09-27T08:06:18;98339.31;;;19.21;55.10
12182;BME280;6154;51.550;12.138;2022-09-27T08:08:47;98335.66;;;19.29;54.69
12182;BME280;6154;51.550;12.138;2022-09-27T08:11:17;98333.94;;;19.21;54.81
12182;BME280;6154;51.550;12.138;2022-09-27T08:13:49;98344.66;;;19.21;54.66
12182;BME280;6154;51.550;12.138;2022-09-27T08:16:19;98340.72;;;19.17;54.66
12182;BME280;6154;51.550;12.138;2022-09-27T08:18:48;98345.38;;;19.08;54.81
12182;BME280;6154;51.550;12.138;2022-09-27T08:21:23;98343.41;;;19.17;54.50
12182;BME280;6154;51.550;12.138;2022-09-27T08:23:51;98354.47;;;19.14;54.53
12182;BME280;6154;51.550;12.138;2022-09-27T08:26:20;98354.87;;;19.11;54.51
12182;BME280;6154;51.550;12.138;2022-09-27T08:28:50;98357.66;;;19.03;54.56
12182;BME280;6154;51.550;12.138;2022-09-27T08:31:18;98366.38;;;19.05;54.52
12182;BME280;6154;51.550;12.138;2022-09-27T08:33:48;98366.91;;;19.15;54.45
12182;BME280;6154;51.550;12.138;2022-09-27T08:36:16;98358.06;;;19.21;54.46
12182;BME280;6154;51.550;12.138;2022-09-27T08:38:47;98361.22;;;19.24;54.45
12182;BME280;6154;51.550;12.138;2022-09-27T08:41:27;98359.53;;;19.23;54.54
12182;BME280;6154;51.550;12.138;2022-09-27T08:44:08;98361.78;;;19.41;54.32
12182;BME280;6154;51.550;12.138;2022-09-27T08:46:46;98362.81;;;19.40;54.17
12182;BME280;6154;51.550;12.138;2022-09-27T08:49:20;98372.78;;;19.46;54.02
12182;BME280;6154;51.550;12.138;2022-09-27T08:51:52;98373.72;;;19.39;54.29
12182;BME280;6154;51.550;12.138;2022-09-27T08:54:24;98377.03;;;19.41;54.28
12182;BME280;6154;51.550;12.138;2022-09-27T08:56:56;98377.25;;;19.39;54.23
12182;BME280;6154;51.550;12.138;2022-09-27T08:59:34;98382.72;;;19.31;53.92
12182;BME280;6154;51.550;12.138;2022-09-27T09:02:08;98383.44;;;19.40;53.78
12182;BME280;6154;51.550;12.138;2022-09-27T09:04:42;98387.06;;;19.53;53.81
12182;BME280;6154;51.550;12.138;2022-09-27T09:07:22;98389.53;;;19.12;53.75
12182;BME280;6154;51.550;12.138;2022-09-27T09:10:00;98392.59;;;19.24;53.89
12182;BME280;6154;51.550;12.138;2022-09-27T09:12:38;98402.28;;;18.89;53.81
12182;BME280;6154;51.550;12.138;2022-09-27T09:15:21;98395.88;;;19.05;54.11
12182;BME280;6154;51.550;12.138;2022-09-27T09:18:05;98395.47;;;19.08;53.94
12182;BME280;6154;51.550;12.138;2022-09-27T09:20:54;98401.78;;;19.00;53.76
12182;BME280;6154;51.550;12.138;2022-09-27T09:23:40;98404.22;;;18.51;54.80
12182;BME280;6154;51.550;12.138;2022-09-27T09:26:17;98429.09;;;18.07;56.34
12182;BME280;6154;51.550;12.138;2022-09-27T09:29:00;98441.53;;;18.00;55.99
12182;BME280;6154;51.550;12.138;2022-09-27T09:31:40;98446.81;;;17.70;56.77
12182;BME280;6154;51.550;12.138;2022-09-27T09:34:14;98444.00;;;17.33;57.39
12182;BME280;6154;51.550;12.138;2022-09-27T09:36:46;98449.31;;;17.41;57.24
12182;BME280;6154;51.550;12.138;2022-09-27T09:39:19;98453.72;;;17.34;57.23
12182;BME280;6154;51.550;12.138;2022-09-27T09:41:59;98459.06;;;17.34;57.75
12182;BME280;6154;51.550;12.138;2022-09-27T09:44:37;98447.97;;;17.45;57.62
12182;BME280;6154;51.550;12.138;2022-09-27T09:47:14;98461.91;;;17.32;57.75
12182;BME280;6154;51.550;12.138;2022-09-27T09:49:51;98463.53;;;17.10;58.76
12182;BME280;6154;51.550;12.138;2022-09-27T09:52:25;98466.19;;;17.10;58.34
12182;BME280;6154;51.550;12.138;2022-09-27T09:55:02;98467.97;;;16.95;59.08
12182;BME280;6154;51.550;12.138;2022-09-27T09:57:35;98476.59;;;17.05;59.14
12182;BME280;6154;51.550;12.138;2022-09-27T10:00:13;98473.50;;;17.24;57.87
12182;BME280;6154;51.550;12.138;2022-09-27T10:02:44;98477.31;;;17.22;58.73
12182;BME280;6154;51.550;12.138;2022-09-27T10:05:15;98477.84;;;17.26;58.24
12182;BME280;6154;51.550;12.138;2022-09-27T10:07:47;98478.44;;;17.36;57.94
12182;BME280;6154;51.550;12.138;2022-09-27T10:10:19;98474.63;;;17.53;58.33
12182;BME280;6154;51.550;12.138;2022-09-27T10:12:49;98476.19;;;17.78;57.56
12182;BME280;6154;51.550;12.138;2022-09-27T10:15:20;98480.41;;;17.96;57.42
12182;BME280;6154;51.550;12.138;2022-09-27T10:17:52;98484.25;;;18.16;56.97
12182;BME280;6154;51.550;12.138;2022-09-27T10:20:27;98479.84;;;18.38;57.13
12182;BME280;6154;51.550;12.138;2022-09-27T10:23:03;98484.28;;;18.31;57.62
12182;BME280;6154;51.550;12.138;2022-09-27T10:25:49;98491.72;;;18.21;58.03
12182;BME280;6154;51.550;12.138;2022-09-27T10:28:26;98484.91;;;18.18;59.96
12182;BME280;6154;51.550;12.138;2022-09-27T10:31:00;98493.13;;;18.31;58.64
12182;BME280;6154;51.550;12.138;2022-09-27T10:33:34;98482.78;;;18.28;58.41
12182;BME280;6154;51.550;12.138;2022-09-27T10:36:21;98489.66;;;18.08;58.81
12182;BME280;6154;51.550;12.138;2022-09-27T10:38:52;98490.81;;;17.91;60.64
12182;BME280;6154;51.550;12.138;2022-09-27T10:41:24;98495.97;;;17.92;59.57
12182;BME280;6154;51.550;12.138;2022-09-27T10:43:54;98494.72;;;18.03;59.11
12182;BME280;6154;51.550;12.138;2022-09-27T10:46:25;98498.31;;;18.33;58.76
12182;BME280;6154;51.550;12.138;2022-09-27T10:49:17;98491.97;;;18.49;59.28
12182;BME280;6154;51.550;12.138;2022-09-27T10:51:49;98493.31;;;18.67;60.03
12182;BME280;6154;51.550;12.138;2022-09-27T10:54:21;98495.81;;;18.69;59.28
12182;BME280;6154;51.550;12.138;2022-09-27T10:56:55;98491.84;;;18.80;58.71
12182;BME280;6154;51.550;12.138;2022-09-27T10:59:25;98493.78;;;18.71;58.84
12182;BME280;6154;51.550;12.138;2022-09-27T11:01:57;98489.34;;;18.78;58.70
12182;BME280;6154;51.550;12.138;2022-09-27T11:04:29;98494.81;;;18.85;58.44
12182;BME280;6154;51.550;12.138;2022-09-27T11:07:12;98494.91;;;18.77;58.28
12182;BME280;6154;51.550;12.138;2022-09-27T11:09:47;98495.16;;;19.11;58.74
12182;BME280;6154;51.550;12.138;2022-09-27T11:12:17;98499.69;;;19.11;57.73
12182;BME280;6154;51.550;12.138;2022-09-27T11:14:53;98491.16;;;19.22;57.32
12182;BME280;6154;51.550;12.138;2022-09-27T11:17:31;98498.25;;;19.30;57.14
12182;BME280;6154;51.550;12.138;2022-09-27T11:20:20;98498.16;;;19.23;57.11
12182;BME280;6154;51.550;12.138;2022-09-27T11:23:20;98496.41;;;19.30;56.86
12182;BME280;6154;51.550;12.138;2022-09-27T11:26:02;98500.00;;;19.37;56.29
12182;BME280;6154;51.550;12.138;2022-09-27T11:28:40;98493.78;;;19.66;56.47
12182;BME280;6154;51.550;12.138;2022-09-27T11:31:17;98497.22;;;19.81;55.89
12182;BME280;6154;51.550;12.138;2022-09-27T11:34:03;98491.91;;;19.88;55.75
12182;BME280;6154;51.550;12.138;2022-09-27T11:36:44;98505.34;;;19.88;55.19
12182;BME280;6154;51.550;12.138;2022-09-27T11:39:25;98503.94;;;19.71;54.12
12182;BME280;6154;51.550;12.138;2022-09-27T11:42:09;98503.06;;;19.85;54.94
12182;BME280;6154;51.550;12.138;2022-09-27T11:44:51;98508.38;;;19.64;54.86
12182;BME280;6154;51.550;12.138;2022-09-27T11:47:46;98501.75;;;19.81;54.88
12182;BME280;6154;51.550;12.138;2022-09-27T11:50:28;98491.28;;;19.65;54.22
12182;BME280;6154;51.550;12.138;2022-09-27T11:53:16;98495.94;;;19.77;54.64
12182;BME280;6154;51.550;12.138;2022-09-27T11:55:57;98494.41;;;19.53;54.36
12182;BME280;6154;51.550;12.138;2022-09-27T11:58:39;98499.34;;;19.65;54.50
12182;BME280;6154;51.550;12.138;2022-09-27T12:01:23;98494.84;;;19.93;54.66
12182;BME280;6154;51.550;12.138;2022-09-27T12:04:22;98499.06;;;20.02;54.23
12182;BME280;6154;51.550;12.138;2022-09-27T12:07:06;98498.81;;;20.19;53.92
12182;BME280;6154;51.550;12.138;2022-09-27T12:09:43;98502.53;;;19.96;53.84
12182;BME280;6154;51.550;12.138;2022-09-27T12:12:17;98498.03;;;19.82;53.09
12182;BME280;6154;51.550;12.138;2022-09-27T12:14:49;98512.38;;;20.10;53.96
12182;BME280;6154;51.550;12.138;2022-09-27T12:17:23;98507.81;;;20.11;53.89
12182;BME280;6154;51.550;12.138;2022-09-27T12:19:54;98499.31;;;20.29;53.53
12182;BME280;6154;51.550;12.138;2022-09-27T12:22:30;98507.25;;;20.37;53.14
12182;BME280;6154;51.550;12.138;2022-09-27T12:25:27;98508.91;;;20.38;52.90
12182;BME280;6154;51.550;12.138;2022-09-27T12:28:00;98503.44;;;20.25;52.64
12182;BME280;6154;51.550;12.138;2022-09-27T12:30:33;98516.97;;;20.17;52.78
12182;BME280;6154;51.550;12.138;2022-09-27T12:33:06;98503.69;;;20.08;52.87
12182;BME280;6154;51.550;12.138;2022-09-27T12:35:43;98507.00;;;20.10;51.99
12182;BME280;6154;51.550;12.138;2022-09-27T12:38:16;98508.03;;;20.09;51.32
12182;BME280;6154;51.550;12.138;2022-09-27T12:40:51;98491.19;;;20.44;51.10
12182;BME280;6154;51.550;12.138;2022-09-27T12:43:28;98499.34;;;20.91;50.84
12182;BME280;6154;51.550;12.138;2022-09-27T12:46:06;98499.09;;;21.21;51.65
12182;BME280;6154;51.550;12.138;2022-09-27T12:48:46;98502.28;;;20.97;48.57
12182;BME280;6154;51.550;12.138;2022-09-27T12:51:21;98504.25;;;21.16;49.31
12182;BME280;6154;51.550;12.138;2022-09-27T12:54:03;98501.25;;;20.98;50.37
12182;BME280;6154;51.550;12.138;2022-09-27T12:56:45;98512.03;;;21.04;48.81
12182;BME280;6154;51.550;12.138;2022-09-27T12:59:33;98508.97;;;20.73;49.40
12182;BME280;6154;51.550;12.138;2022-09-27T13:02:20;98508.03;;;20.87;49.56
12182;BME280;6154;51.550;12.138;2022-09-27T13:05:07;98508.38;;;20.77;49.18
12182;BME280;6154;51.550;12.138;2022-09-27T13:07:51;98503.00;;;20.77;48.70
12182;BME280;6154;51.550;12.138;2022-09-27T13:10:34;98512.72;;;20.78;49.22
12182;BME280;6154;51.550;12.138;2022-09-27T13:13:10;98509.44;;;20.83;49.58
12182;BME280;6154;51.550;12.138;2022-09-27T13:15:40;98512.75;;;20.50;47.56
12182;BME280;6154;51.550;12.138;2022-09-27T13:18:30;98506.72;;;20.76;48.77
12182;BME280;6154;51.550;12.138;2022-09-27T13:21:05;98498.59;;;20.70;45.61
12182;BME280;6154;51.550;12.138;2022-09-27T13:23:49;98511.41;;;20.95;48.43
12182;BME280;6154;51.550;12.138;2022-09-27T13:26:39;98512.66;;;21.00;45.93
12182;BME280;6154;51.550;12.138;2022-09-27T13:29:29;98515.13;;;20.66;45.09
12182;BME280;6154;51.550;12.138;2022-09-27T13:32:21;98511.81;;;20.64;44.35
12182;BME280;6154;51.550;12.138;2022-09-27T13:34:52;98517.38;;;21.32;45.74
12182;BME280;6154;51.550;12.138;2022-09-27T13:37:47;98518.22;;;20.98;46.67